createdAt,value
2023-03-19T00:00:50.618Z,12.17
2023-03-19T00:03:17.431Z,12.17
2023-03-19T00:05:50.803Z,12.16
2023-03-19T00:08:17.456Z,12.14
2023-03-19T00:10:44.095Z,12.11
2023-03-19T00:13:10.763Z,12.10
2023-03-19T00:15:37.726Z,12.13
2023-03-19T00:18:06.355Z,12.13
2023-03-19T00:20:33.051Z,12.12
2023-03-19T00:22:59.992Z,12.10
2023-03-19T00:25:26.824Z,12.07
2023-03-19T00:27:55.263Z,12.05
2023-03-19T00:30:22.808Z,12.06
2023-03-19T00:32:49.462Z,12.07
2023-03-19T00:35:16.292Z,12.06
2023-03-19T00:37:43.376Z,12.05
2023-03-19T00:40:10.526Z,12.13
2023-03-19T00:42:37.537Z,12.27
2023-03-19T00:45:04.338Z,12.29
2023-03-19T00:47:30.953Z,12.28
2023-03-19T00:49:57.564Z,12.24
2023-03-19T00:52:24.384Z,12.22
2023-03-19T00:54:51.260Z,12.15
2023-03-19T00:57:17.873Z,12.14
2023-03-19T00:59:44.536Z,12.16
2023-03-19T01:02:11.284Z,12.15
2023-03-19T01:04:38.105Z,12.15
2023-03-19T01:07:04.903Z,12.17
2023-03-19T01:09:31.627Z,12.18
2023-03-19T01:11:58.411Z,12.18
2023-03-19T01:14:25.139Z,12.19
2023-03-19T01:16:52.205Z,12.20
2023-03-19T01:19:20.212Z,12.17
2023-03-19T01:21:47.189Z,12.07
2023-03-19T01:24:13.909Z,11.96
2023-03-19T01:26:41.077Z,11.82
2023-03-19T01:29:08.352Z,11.70
2023-03-19T01:31:35.879Z,11.58
2023-03-19T01:34:02.885Z,11.46
2023-03-19T01:36:29.646Z,11.39
2023-03-19T01:38:56.530Z,11.34
2023-03-19T01:41:23.946Z,11.30
2023-03-19T01:43:50.819Z,11.28
2023-03-19T01:46:17.487Z,11.24
2023-03-19T01:48:51.889Z,11.18
2023-03-19T01:51:21.549Z,11.19
2023-03-19T01:53:50.638Z,11.17
2023-03-19T01:56:22.823Z,11.14
2023-03-19T01:58:51.514Z,11.14
2023-03-19T02:01:19.104Z,11.11
2023-03-19T02:03:46.815Z,11.04
2023-03-19T02:06:14.087Z,11.01
2023-03-19T02:08:41.917Z,10.96
2023-03-19T02:11:13.482Z,10.92
2023-03-19T02:13:40.142Z,10.88
2023-03-19T02:16:07.176Z,10.82
2023-03-19T02:18:33.933Z,10.77
2023-03-19T02:21:12.801Z,10.77
2023-03-19T02:23:57.839Z,10.73
2023-03-19T02:26:26.757Z,10.65
2023-03-19T02:28:53.926Z,10.64
2023-03-19T02:31:21.136Z,10.60
2023-03-19T02:34:00.881Z,10.59
2023-03-19T02:36:31.701Z,10.57
2023-03-19T02:39:01.705Z,10.55
2023-03-19T02:41:29.202Z,10.51
2023-03-19T02:43:56.293Z,10.50
2023-03-19T02:46:23.038Z,10.48
2023-03-19T02:48:49.742Z,10.48
2023-03-19T02:51:16.521Z,10.52
2023-03-19T02:53:43.167Z,10.51
2023-03-19T02:56:09.912Z,10.53
2023-03-19T02:58:36.548Z,10.55
2023-03-19T03:01:03.334Z,10.52
2023-03-19T03:03:30.616Z,10.51
2023-03-19T03:05:57.293Z,10.48
2023-03-19T03:08:23.958Z,10.47
2023-03-19T03:10:50.756Z,10.49
2023-03-19T03:13:17.469Z,10.50
2023-03-19T03:15:44.258Z,10.51
2023-03-19T03:18:11.297Z,10.51
2023-03-19T03:20:37.972Z,10.53
2023-03-19T03:23:04.659Z,10.56
2023-03-19T03:25:31.373Z,10.56
2023-03-19T03:27:58.129Z,10.56
2023-03-19T03:30:25.403Z,10.58
2023-03-19T03:32:52.281Z,10.58
2023-03-19T03:35:22.471Z,10.57
2023-03-19T03:37:49.747Z,10.56
2023-03-19T03:40:16.575Z,10.55
2023-03-19T03:42:43.809Z,10.54
2023-03-19T03:45:11.222Z,10.54
2023-03-19T03:47:37.969Z,10.52
2023-03-19T03:50:05.513Z,10.51
2023-03-19T03:52:34.427Z,10.51
2023-03-19T03:55:01.312Z,10.50
2023-03-19T03:57:28.086Z,10.51
2023-03-19T03:59:54.992Z,10.51
2023-03-19T04:02:22.736Z,10.50
2023-03-19T04:04:49.482Z,10.51
2023-03-19T04:07:16.198Z,10.49
2023-03-19T04:09:42.965Z,10.48
2023-03-19T04:12:09.911Z,10.48
2023-03-19T04:14:36.926Z,10.47
2023-03-19T04:17:03.666Z,10.50
2023-03-19T04:19:30.306Z,10.52
2023-03-19T04:21:56.943Z,10.49
2023-03-19T04:24:23.663Z,10.47
2023-03-19T04:26:50.422Z,10.45
2023-03-19T04:29:18.740Z,10.40
2023-03-19T04:31:46.017Z,10.40
2023-03-19T04:34:13.151Z,10.42
2023-03-19T04:36:39.894Z,10.42
2023-03-19T04:39:06.694Z,10.42
2023-03-19T04:41:33.448Z,10.36
2023-03-19T04:44:00.132Z,10.32
2023-03-19T04:46:27.003Z,10.28
2023-03-19T04:48:53.718Z,10.24
2023-03-19T04:51:21.847Z,10.15
2023-03-19T04:53:49.174Z,10.11
2023-03-19T04:56:19.031Z,10.05
2023-03-19T04:58:46.359Z,10.00
2023-03-19T05:01:13.358Z,9.94
2023-03-19T05:03:40.214Z,9.92
2023-03-19T05:06:07.070Z,9.87
2023-03-19T05:08:34.114Z,9.82
2023-03-19T05:11:01.032Z,9.78
2023-03-19T05:13:27.661Z,9.76
2023-03-19T05:15:55.743Z,9.74
2023-03-19T05:18:22.537Z,9.73
2023-03-19T05:20:49.632Z,9.70
2023-03-19T05:23:16.247Z,9.66
2023-03-19T05:25:43.041Z,9.65
2023-03-19T05:28:09.807Z,9.63
2023-03-19T05:30:36.576Z,9.60
2023-03-19T05:33:03.762Z,9.57
2023-03-19T05:35:30.810Z,9.56
2023-03-19T05:37:57.605Z,9.55
2023-03-19T05:40:24.789Z,9.51
2023-03-19T05:42:51.485Z,9.49
2023-03-19T05:45:18.226Z,9.49
2023-03-19T05:47:47.201Z,9.47
2023-03-19T05:50:13.862Z,9.48
2023-03-19T05:52:40.683Z,9.48
2023-03-19T05:55:08.494Z,9.49
2023-03-19T05:57:35.540Z,9.48
2023-03-19T06:00:02.444Z,9.48
2023-03-19T06:02:36.637Z,9.49
2023-03-19T06:05:06.520Z,9.48
2023-03-19T06:07:33.200Z,9.45
2023-03-19T06:09:59.912Z,9.47
2023-03-19T06:12:30.197Z,9.48
2023-03-19T06:14:57.302Z,9.48
2023-03-19T06:17:24.101Z,9.45
2023-03-19T06:19:50.963Z,9.45
2023-03-19T06:22:17.722Z,9.47
2023-03-19T06:24:44.450Z,9.46
2023-03-19T06:27:11.341Z,9.44
2023-03-19T06:29:38.088Z,9.42
2023-03-19T06:32:04.964Z,9.40
2023-03-19T06:34:31.637Z,9.38
2023-03-19T06:36:58.325Z,9.38
2023-03-19T06:39:25.074Z,9.39
2023-03-19T06:41:52.044Z,9.39
2023-03-19T06:44:18.790Z,9.36
2023-03-19T06:46:45.691Z,9.37
2023-03-19T06:49:12.349Z,9.39
2023-03-19T06:51:39.161Z,9.43
2023-03-19T06:54:06.284Z,9.43
2023-03-19T06:56:33.026Z,9.43
2023-03-19T06:58:59.665Z,9.43
2023-03-19T07:01:26.582Z,9.39
2023-03-19T07:03:53.509Z,9.40
2023-03-19T07:06:20.189Z,9.39
2023-03-19T07:08:46.838Z,9.35
2023-03-19T07:11:14.211Z,9.37
2023-03-19T07:13:41.339Z,9.41
2023-03-19T07:16:08.860Z,9.43
2023-03-19T07:18:36.145Z,9.46
2023-03-19T07:21:03.318Z,9.50
2023-03-19T07:23:30.198Z,9.60
2023-03-19T07:25:57.083Z,9.65
2023-03-19T07:28:23.889Z,9.69
2023-03-19T07:30:54.099Z,9.73
2023-03-19T07:33:22.162Z,9.77
2023-03-19T07:35:49.093Z,9.78
2023-03-19T07:38:15.853Z,9.86
2023-03-19T07:40:51.364Z,9.93
2023-03-19T07:43:26.122Z,9.97
2023-03-19T07:45:52.878Z,9.98
2023-03-19T07:48:19.619Z,10.00
2023-03-19T07:50:46.524Z,10.00
2023-03-19T07:53:13.208Z,9.99
2023-03-19T07:55:39.876Z,10.00
2023-03-19T07:58:06.549Z,10.00
2023-03-19T08:00:33.766Z,10.02
2023-03-19T08:03:00.593Z,10.04
2023-03-19T08:05:27.523Z,10.05
2023-03-19T08:07:54.171Z,10.04
2023-03-19T08:10:21.022Z,10.07
2023-03-19T08:12:48.123Z,10.17
2023-03-19T08:15:14.843Z,10.24
2023-03-19T08:17:41.580Z,10.26
2023-03-19T08:20:11.526Z,10.31
2023-03-19T08:22:39.591Z,10.34
2023-03-19T08:25:07.099Z,10.35
2023-03-19T08:27:35.841Z,10.35
2023-03-19T08:30:04.294Z,10.33
2023-03-19T08:32:35.338Z,10.37
2023-03-19T08:35:02.437Z,10.42
2023-03-19T08:37:29.389Z,10.33
2023-03-19T08:39:56.169Z,10.35
2023-03-19T08:42:25.797Z,10.40
2023-03-19T08:44:52.523Z,10.43
2023-03-19T08:47:19.291Z,10.47
2023-03-19T08:49:46.350Z,10.52
2023-03-19T08:52:13.426Z,10.57
2023-03-19T08:54:40.182Z,10.59
2023-03-19T08:57:07.033Z,10.62
2023-03-19T08:59:34.384Z,10.66
2023-03-19T09:02:01.813Z,10.65
2023-03-19T09:04:28.743Z,10.68
2023-03-19T09:06:56.138Z,10.74
2023-03-19T09:09:24.070Z,10.81
2023-03-19T09:11:51.088Z,10.88
2023-03-19T09:14:20.094Z,10.91
2023-03-19T09:16:46.964Z,10.96
2023-03-19T09:19:13.660Z,10.98
2023-03-19T09:21:40.289Z,11.03
2023-03-19T09:24:07.465Z,11.09
2023-03-19T09:26:34.344Z,11.14
2023-03-19T09:29:01.735Z,11.22
2023-03-19T09:31:29.918Z,11.26
2023-03-19T09:33:57.126Z,11.34
2023-03-19T09:36:24.048Z,11.42
2023-03-19T09:38:50.953Z,11.43
2023-03-19T09:41:17.742Z,11.41
2023-03-19T09:44:23.500Z,11.38
2023-03-19T09:46:56.903Z,11.43
2023-03-19T09:49:23.944Z,11.44
2023-03-19T09:51:55.143Z,11.47
2023-03-19T09:54:28.281Z,11.42
2023-03-19T09:56:56.054Z,11.47
2023-03-19T09:59:24.103Z,11.55
2023-03-19T10:01:54.871Z,11.62
2023-03-19T10:04:54.083Z,11.66
2023-03-19T10:07:20.816Z,11.76
2023-03-19T10:10:17.074Z,11.85
2023-03-19T10:12:57.086Z,11.94
2023-03-19T10:15:31.393Z,11.99
2023-03-19T10:18:11.055Z,12.01
2023-03-19T10:20:47.048Z,12.04
2023-03-19T10:23:16.538Z,12.09
2023-03-19T10:25:45.030Z,12.14
2023-03-19T10:28:16.204Z,12.12
2023-03-19T10:30:44.552Z,12.14
2023-03-19T10:33:17.483Z,12.16
2023-03-19T10:35:45.642Z,12.28
2023-03-19T10:38:23.298Z,12.35
2023-03-19T10:40:57.080Z,12.40
2023-03-19T10:43:26.233Z,12.39
2023-03-19T10:45:54.422Z,12.40
2023-03-19T10:48:26.965Z,12.47
2023-03-19T10:50:59.200Z,12.47
2023-03-19T10:53:25.906Z,12.52
2023-03-19T10:55:56.741Z,12.55
2023-03-19T10:58:25.512Z,12.57
2023-03-19T11:01:04.271Z,12.56
2023-03-19T11:03:32.719Z,12.56
2023-03-19T11:06:18.400Z,12.55
2023-03-19T11:08:51.589Z,12.60
2023-03-19T11:11:26.485Z,12.67
2023-03-19T11:13:53.331Z,12.69
2023-03-19T11:16:23.507Z,12.63
2023-03-19T11:18:51.487Z,12.64
2023-03-19T11:21:33.472Z,12.74
2023-03-19T11:24:01.536Z,12.85
2023-03-19T11:26:28.980Z,12.96
2023-03-19T11:29:02.513Z,12.97
2023-03-19T11:32:20.309Z,13.02
2023-03-19T11:35:00.049Z,13.07
2023-03-19T11:37:47.113Z,13.12
2023-03-19T11:40:26.077Z,13.12
2023-03-19T11:43:02.123Z,13.11
2023-03-19T11:45:42.241Z,13.11
2023-03-19T11:48:29.349Z,13.06
2023-03-19T11:50:56.115Z,13.08
2023-03-19T11:53:26.042Z,13.12
2023-03-19T11:56:11.510Z,13.14
2023-03-19T11:58:42.096Z,13.09
2023-03-19T12:01:27.568Z,13.06
2023-03-19T12:04:08.288Z,13.13
2023-03-19T12:06:51.506Z,13.19
2023-03-19T12:09:24.359Z,13.19
2023-03-19T12:11:58.829Z,13.11
2023-03-19T12:14:31.478Z,13.06
2023-03-19T12:17:04.552Z,13.06
2023-03-19T12:19:43.267Z,13.04
2023-03-19T12:22:09.955Z,13.06
2023-03-19T12:24:38.161Z,13.03
2023-03-19T12:27:20.649Z,13.07
2023-03-19T12:29:57.211Z,13.11
2023-03-19T12:32:39.804Z,13.13
2023-03-19T12:35:10.745Z,13.13
2023-03-19T12:37:40.933Z,13.15
2023-03-19T12:40:19.872Z,13.18
2023-03-19T12:42:46.864Z,13.22
2023-03-19T12:45:26.901Z,13.26
2023-03-19T12:47:58.842Z,13.28
2023-03-19T12:50:26.549Z,13.27
2023-03-19T12:52:58.195Z,13.29
2023-03-19T12:55:36.593Z,13.22
2023-03-19T12:58:12.313Z,13.20
2023-03-19T13:01:01.492Z,13.26
2023-03-19T13:03:46.832Z,13.28
2023-03-19T13:06:19.886Z,13.33
2023-03-19T13:08:53.143Z,13.50
2023-03-19T13:11:35.557Z,13.70
2023-03-19T13:14:07.075Z,13.81
2023-03-19T13:16:39.619Z,13.83
2023-03-19T13:19:06.782Z,13.87
2023-03-19T13:21:35.976Z,13.85
2023-03-19T13:24:10.121Z,13.78
2023-03-19T13:26:37.516Z,13.73
2023-03-19T13:29:09.542Z,13.69
2023-03-19T13:31:38.306Z,13.60
2023-03-19T13:34:21.666Z,13.50
2023-03-19T13:36:53.103Z,13.42
2023-03-19T13:39:21.324Z,13.40
2023-03-19T13:41:48.812Z,13.40
2023-03-19T13:44:29.489Z,13.44
2023-03-19T13:46:56.261Z,13.51
2023-03-19T13:49:28.895Z,13.58
2023-03-19T13:51:56.936Z,13.64
2023-03-19T13:54:32.870Z,13.67
2023-03-19T13:57:03.591Z,13.70
2023-03-19T13:59:34.652Z,13.73
2023-03-19T14:02:02.564Z,13.72
2023-03-19T14:04:33.439Z,13.73
2023-03-19T14:07:09.586Z,13.69
2023-03-19T14:09:48.819Z,13.70
2023-03-19T14:12:15.477Z,13.69
2023-03-19T14:14:47.586Z,13.65
2023-03-19T14:17:19.862Z,13.63
2023-03-19T14:19:46.947Z,13.60
2023-03-19T14:22:16.821Z,13.64
2023-03-19T14:24:57.019Z,13.69
2023-03-19T14:27:36.290Z,13.74
2023-03-19T14:30:10.657Z,13.74
2023-03-19T14:32:42.784Z,13.80
2023-03-19T14:35:14.592Z,13.88
2023-03-19T14:37:51.608Z,13.88
2023-03-19T14:40:18.423Z,13.86
2023-03-19T14:42:51.467Z,13.84
2023-03-19T14:45:18.286Z,13.89
2023-03-19T14:47:44.950Z,13.88
2023-03-19T14:50:11.649Z,13.92
2023-03-19T14:52:49.867Z,13.95
2023-03-19T14:55:17.754Z,13.89
2023-03-19T14:57:44.573Z,13.87
2023-03-19T15:00:17.739Z,13.89
2023-03-19T15:02:44.715Z,13.90
2023-03-19T15:05:33.324Z,13.89
2023-03-19T15:08:10.850Z,13.88
2023-03-19T15:10:55.992Z,13.83
2023-03-19T15:13:22.653Z,13.74
2023-03-19T15:16:10.663Z,13.73
2023-03-19T15:18:37.903Z,13.75
2023-03-19T15:21:05.565Z,13.75
2023-03-19T15:23:32.885Z,13.75
2023-03-19T15:26:02.127Z,13.70
2023-03-19T15:28:30.537Z,13.66
2023-03-19T15:31:19.527Z,13.64
2023-03-19T15:33:59.872Z,13.62
2023-03-19T15:36:32.019Z,13.63
2023-03-19T15:39:02.917Z,13.67
2023-03-19T15:41:32.333Z,13.67
2023-03-19T15:44:00.066Z,13.64
2023-03-19T15:46:29.871Z,13.62
2023-03-19T15:49:12.335Z,13.61
2023-03-19T15:51:40.277Z,13.61
2023-03-19T15:54:07.687Z,13.60
2023-03-19T15:56:34.746Z,13.59
2023-03-19T15:59:04.447Z,13.60
2023-03-19T16:01:33.514Z,13.57
2023-03-19T16:04:02.065Z,13.51
2023-03-19T16:06:30.957Z,13.51
2023-03-19T16:09:07.539Z,13.52
2023-03-19T16:11:35.753Z,13.50
2023-03-19T16:14:09.585Z,13.54
2023-03-19T16:16:38.965Z,13.59
2023-03-19T16:19:06.215Z,13.59
2023-03-19T16:21:36.453Z,13.58
2023-03-19T16:24:09.027Z,13.58
2023-03-19T16:26:40.378Z,13.58
2023-03-19T16:29:18.099Z,13.52
2023-03-19T16:31:46.399Z,13.45
2023-03-19T16:34:25.634Z,13.45
2023-03-19T16:36:52.351Z,13.43
2023-03-19T16:39:31.406Z,13.44
2023-03-19T16:42:18.529Z,13.46
2023-03-19T16:44:47.323Z,13.46
2023-03-19T16:47:15.868Z,13.46
2023-03-19T16:49:42.944Z,13.45
2023-03-19T16:52:14.353Z,13.44
2023-03-19T16:54:41.233Z,13.43
2023-03-19T16:57:10.061Z,13.45
2023-03-19T16:59:36.834Z,13.42
2023-03-19T17:02:03.562Z,13.40
2023-03-19T17:04:31.262Z,13.37
2023-03-19T17:06:58.028Z,13.36
2023-03-19T17:09:26.655Z,13.34
2023-03-19T17:11:54.096Z,13.34
2023-03-19T17:14:22.159Z,13.32
2023-03-19T17:16:51.256Z,13.30
2023-03-19T17:19:19.731Z,13.30
2023-03-19T17:21:47.439Z,13.27
2023-03-19T17:24:17.104Z,13.25
2023-03-19T17:26:43.993Z,13.21
2023-03-19T17:29:11.088Z,13.17
2023-03-19T17:31:38.057Z,13.14
2023-03-19T17:34:06.196Z,13.15
2023-03-19T17:36:33.300Z,13.16
2023-03-19T17:39:00.013Z,13.18
2023-03-19T17:41:26.859Z,13.18
2023-03-19T17:43:53.582Z,13.19
2023-03-19T17:46:24.794Z,13.19
2023-03-19T17:48:51.979Z,13.17
2023-03-19T17:51:19.003Z,13.17
2023-03-19T17:53:50.437Z,13.16
2023-03-19T17:56:18.262Z,13.17
2023-03-19T17:58:47.173Z,13.16
2023-03-19T18:01:18.034Z,13.12
2023-03-19T18:03:44.779Z,13.13
2023-03-19T18:06:32.738Z,13.11
2023-03-19T18:08:59.511Z,13.10
2023-03-19T18:11:26.492Z,13.09
2023-03-19T18:13:53.385Z,13.08
2023-03-19T18:16:20.129Z,13.06
2023-03-19T18:18:47.004Z,13.04
2023-03-19T18:21:14.673Z,13.01
2023-03-19T18:23:41.565Z,12.99
2023-03-19T18:26:08.546Z,12.95
2023-03-19T18:28:35.400Z,12.92
2023-03-19T18:31:02.250Z,12.88
2023-03-19T18:33:30.040Z,12.86
2023-03-19T18:35:57.967Z,12.83
2023-03-19T18:38:25.822Z,12.81
2023-03-19T18:40:53.194Z,12.75
2023-03-19T18:43:19.877Z,12.72
2023-03-19T18:45:48.583Z,12.67
2023-03-19T18:48:18.058Z,12.63
2023-03-19T18:50:47.199Z,12.61
2023-03-19T18:53:14.113Z,12.61
2023-03-19T18:55:40.909Z,12.62
2023-03-19T18:58:07.679Z,12.64
2023-03-19T19:00:35.418Z,12.67
2023-03-19T19:03:02.993Z,12.68
2023-03-19T19:05:31.387Z,12.67
2023-03-19T19:07:59.046Z,12.65
2023-03-19T19:10:26.394Z,12.62
2023-03-19T19:12:55.397Z,12.60
2023-03-19T19:15:24.273Z,12.58
2023-03-19T19:17:52.365Z,12.62
2023-03-19T19:20:20.172Z,12.60
2023-03-19T19:22:47.477Z,12.59
2023-03-19T19:25:19.766Z,12.55
2023-03-19T19:27:47.379Z,12.54
2023-03-19T19:30:18.613Z,12.50
2023-03-19T19:32:46.208Z,12.50
2023-03-19T19:35:17.587Z,12.51
2023-03-19T19:37:44.414Z,12.52
2023-03-19T19:40:12.738Z,12.53
2023-03-19T19:42:40.620Z,12.52
2023-03-19T19:45:08.215Z,12.50
2023-03-19T19:47:36.007Z,12.46
2023-03-19T19:50:04.380Z,12.45
2023-03-19T19:52:39.152Z,12.45
2023-03-19T19:55:06.170Z,12.49
2023-03-19T19:57:34.323Z,12.48
2023-03-19T20:00:01.055Z,12.48
2023-03-19T20:02:31.513Z,12.46
2023-03-19T20:04:58.628Z,12.46
2023-03-19T20:07:25.435Z,12.46
2023-03-19T20:09:52.225Z,12.43
2023-03-19T20:12:24.135Z,12.42
2023-03-19T20:14:51.439Z,12.40
2023-03-19T20:17:18.977Z,12.35
2023-03-19T20:19:46.941Z,12.31
2023-03-19T20:22:13.712Z,12.32
2023-03-19T20:24:40.818Z,12.35
2023-03-19T20:27:17.532Z,12.35
2023-03-19T20:29:44.571Z,12.37
2023-03-19T20:32:34.551Z,12.36
2023-03-19T20:35:01.480Z,12.33
2023-03-19T20:37:28.410Z,12.32
2023-03-19T20:39:55.154Z,12.32
2023-03-19T20:42:37.425Z,12.32
2023-03-19T20:45:04.460Z,12.28
2023-03-19T20:47:33.261Z,12.23
2023-03-19T20:50:00.424Z,12.24
2023-03-19T20:52:41.500Z,12.21
2023-03-19T20:55:09.135Z,12.21
2023-03-19T20:57:35.982Z,12.20
2023-03-19T21:00:11.628Z,12.21
2023-03-19T21:02:39.256Z,12.20
2023-03-19T21:05:07.896Z,12.17
2023-03-19T21:07:34.770Z,12.15
2023-03-19T21:10:03.818Z,12.13
2023-03-19T21:12:40.104Z,12.12
2023-03-19T21:15:07.307Z,12.14
2023-03-19T21:17:34.627Z,12.15
2023-03-19T21:20:02.310Z,12.12
2023-03-19T21:22:36.708Z,12.09
2023-03-19T21:25:08.145Z,12.10
2023-03-19T21:27:36.743Z,12.13
2023-03-19T21:30:04.621Z,12.13
2023-03-19T21:32:33.780Z,12.12
2023-03-19T21:35:00.697Z,12.12
2023-03-19T21:37:27.701Z,12.12
2023-03-19T21:39:54.402Z,12.12
2023-03-19T21:42:22.739Z,12.13
2023-03-19T21:44:52.545Z,12.13
2023-03-19T21:47:21.857Z,12.14
2023-03-19T21:49:48.969Z,12.13
2023-03-19T21:52:18.854Z,12.14
2023-03-19T21:54:45.877Z,12.13
2023-03-19T21:57:16.744Z,12.12
2023-03-19T21:59:45.479Z,12.09
2023-03-19T22:02:38.260Z,12.05
2023-03-19T22:05:25.666Z,12.03
2023-03-19T22:07:53.310Z,11.98
2023-03-19T22:10:21.228Z,11.96
2023-03-19T22:12:49.587Z,11.93
2023-03-19T22:15:25.705Z,11.92
2023-03-19T22:17:52.439Z,11.92
2023-03-19T22:20:21.245Z,11.92
2023-03-19T22:22:48.148Z,11.92
2023-03-19T22:25:16.170Z,11.90
2023-03-19T22:27:43.828Z,11.87
2023-03-19T22:30:19.010Z,11.86
2023-03-19T22:32:45.842Z,11.86
2023-03-19T22:35:16.842Z,11.88
2023-03-19T22:37:44.113Z,11.89
2023-03-19T22:40:12.697Z,11.88
2023-03-19T22:42:40.302Z,11.89
2023-03-19T22:45:08.452Z,11.87
2023-03-19T22:47:38.599Z,11.86
2023-03-19T22:50:06.908Z,11.87
2023-03-19T22:52:48.568Z,11.87
2023-03-19T22:55:30.148Z,11.88
2023-03-19T22:57:57.376Z,11.87
2023-03-19T23:00:24.172Z,11.86
2023-03-19T23:02:58.015Z,11.86
2023-03-19T23:05:34.527Z,11.89
2023-03-19T23:08:03.657Z,11.91
2023-03-19T23:10:36.445Z,11.91
2023-03-19T23:13:03.666Z,11.91
2023-03-19T23:15:31.697Z,11.89
2023-03-19T23:18:00.198Z,11.87
2023-03-19T23:20:28.284Z,11.88
2023-03-19T23:22:56.096Z,11.85
2023-03-19T23:25:25.443Z,11.83
2023-03-19T23:28:01.739Z,11.83
2023-03-19T23:30:30.710Z,11.84
2023-03-19T23:32:59.257Z,11.79
2023-03-19T23:35:26.853Z,11.78
2023-03-19T23:37:56.717Z,11.78
2023-03-19T23:40:25.862Z,11.78
2023-03-19T23:42:55.729Z,11.79
2023-03-19T23:45:37.055Z,11.79
2023-03-19T23:48:05.527Z,11.77
2023-03-19T23:50:32.456Z,11.76
2023-03-19T23:52:59.631Z,11.73
2023-03-19T23:55:27.920Z,11.71
2023-03-19T23:57:54.966Z,11.73
